createdAt,value
2018-12-12T00:00:16.177Z,1014.84
2018-12-12T00:01:16.156Z,1014.87
2018-12-12T00:02:16.135Z,1014.84
2018-12-12T00:03:16.110Z,1014.88
2018-12-12T00:04:16.091Z,1014.87
2018-12-12T00:05:16.061Z,1014.89
2018-12-12T00:06:16.045Z,1014.84
2018-12-12T00:07:16.024Z,1014.87
2018-12-12T00:08:15.999Z,1014.85
2018-12-12T00:09:15.971Z,1014.86
2018-12-12T00:10:15.953Z,1014.85
2018-12-12T00:11:15.931Z,1014.89
2018-12-12T00:12:15.909Z,1014.81
2018-12-12T00:13:15.887Z,1014.86
2018-12-12T00:14:15.863Z,1014.86
2018-12-12T00:15:15.842Z,1014.86
2018-12-12T00:16:15.818Z,1014.86
2018-12-12T00:17:15.794Z,1014.83
2018-12-12T00:18:15.773Z,1014.84
2018-12-12T00:19:15.750Z,1014.89
2018-12-12T00:20:15.729Z,1014.91
2018-12-12T00:21:15.702Z,1014.88
2018-12-12T00:22:15.687Z,1014.82
2018-12-12T00:23:15.659Z,1014.86
2018-12-12T00:24:15.633Z,1014.82
2018-12-12T00:25:15.642Z,1014.84
2018-12-12T00:26:15.585Z,1014.85
2018-12-12T00:27:15.566Z,1014.82
2018-12-12T00:28:15.547Z,1014.82
2018-12-12T00:29:15.518Z,1014.84
2018-12-12T00:30:15.496Z,1014.84
2018-12-12T00:31:15.478Z,1014.78
2018-12-12T00:32:15.453Z,1014.86
2018-12-12T00:33:15.434Z,1014.81
2018-12-12T00:34:15.414Z,1014.82
2018-12-12T00:35:15.386Z,1014.83
2018-12-12T00:36:15.365Z,1014.81
2018-12-12T00:37:15.341Z,1014.84
2018-12-12T00:38:15.318Z,1014.87
2018-12-12T00:39:15.294Z,1014.78
2018-12-12T00:40:15.269Z,1014.81
2018-12-12T00:41:15.256Z,1014.81
2018-12-12T00:42:15.227Z,1014.84
2018-12-12T00:43:15.208Z,1014.87
2018-12-12T00:44:15.181Z,1014.91
2018-12-12T00:45:15.164Z,1014.96
2018-12-12T00:46:15.139Z,1015.01
2018-12-12T00:47:15.111Z,1014.97
2018-12-12T00:48:15.091Z,1015.01
2018-12-12T00:49:15.074Z,1015.04
2018-12-12T00:50:15.047Z,1015.04
2018-12-12T00:51:15.023Z,1015.06
2018-12-12T00:52:15.001Z,1015.09
2018-12-12T00:53:14.978Z,1015.07
2018-12-12T00:54:14.959Z,1015.11
2018-12-12T00:55:14.931Z,1015.13
2018-12-12T00:56:14.915Z,1015.15
2018-12-12T00:57:14.889Z,1015.17
2018-12-12T00:58:14.863Z,1015.14
2018-12-12T00:59:14.843Z,1015.16
2018-12-12T01:00:14.815Z,1015.17
2018-12-12T01:01:14.797Z,1015.13
2018-12-12T01:02:14.770Z,1015.17
2018-12-12T01:03:14.751Z,1015.19
2018-12-12T01:04:14.725Z,1015.19
2018-12-12T01:05:14.705Z,1015.21
2018-12-12T01:06:14.679Z,1015.27
2018-12-12T01:07:14.664Z,1015.24
2018-12-12T01:08:14.632Z,1015.29
2018-12-12T01:09:14.612Z,1015.26
2018-12-12T01:10:14.593Z,1015.30
2018-12-12T01:11:14.569Z,1015.32
2018-12-12T01:12:14.549Z,1015.28
2018-12-12T01:13:14.524Z,1015.32
2018-12-12T01:14:14.503Z,1015.32
2018-12-12T01:15:14.484Z,1015.37
2018-12-12T01:16:14.463Z,1015.35
2018-12-12T01:17:14.435Z,1015.31
2018-12-12T01:18:14.415Z,1015.39
2018-12-12T01:19:14.391Z,1015.38
2018-12-12T01:20:14.366Z,1015.42
2018-12-12T01:21:14.353Z,1015.37
2018-12-12T01:22:14.325Z,1015.44
2018-12-12T01:23:14.299Z,1015.43
2018-12-12T01:24:14.273Z,1015.40
2018-12-12T01:25:14.255Z,1015.46
2018-12-12T01:26:14.234Z,1015.44
2018-12-12T01:27:14.209Z,1015.47
2018-12-12T01:28:14.190Z,1015.45
2018-12-12T01:29:14.163Z,1015.48
2018-12-12T01:30:14.143Z,1015.50
2018-12-12T01:31:14.113Z,1015.51
2018-12-12T01:32:14.095Z,1015.56
2018-12-12T01:33:14.076Z,1015.55
2018-12-12T01:34:14.061Z,1015.50
2018-12-12T01:35:14.028Z,1015.59
2018-12-12T01:36:14.010Z,1015.56
2018-12-12T01:37:14.003Z,1015.52
2018-12-12T01:38:13.956Z,1015.54
2018-12-12T01:39:13.936Z,1015.54
2018-12-12T01:40:13.916Z,1015.55
2018-12-12T01:41:13.901Z,1015.58
2018-12-12T01:42:13.871Z,1015.60
2018-12-12T01:43:13.848Z,1015.57
2018-12-12T01:44:13.824Z,1015.58
2018-12-12T01:45:13.805Z,1015.55
2018-12-12T01:46:13.783Z,1015.62
2018-12-12T01:47:13.757Z,1015.56
2018-12-12T01:48:13.734Z,1015.56
2018-12-12T01:49:13.713Z,1015.56
2018-12-12T01:50:13.691Z,1015.49
2018-12-12T01:51:13.665Z,1015.50
2018-12-12T01:52:13.643Z,1015.48
2018-12-12T01:53:13.621Z,1015.56
2018-12-12T01:54:13.596Z,1015.62
2018-12-12T01:55:13.577Z,1015.60
2018-12-12T01:56:13.553Z,1015.53
2018-12-12T01:57:13.532Z,1015.56
2018-12-12T01:58:13.505Z,1015.54
2018-12-12T01:59:13.483Z,1015.56
2018-12-12T02:00:13.462Z,1015.56
2018-12-12T02:01:13.441Z,1015.56
2018-12-12T02:02:13.417Z,1015.55
2018-12-12T02:03:13.398Z,1015.60
2018-12-12T02:04:13.372Z,1015.62
2018-12-12T02:05:13.349Z,1015.63
2018-12-12T02:06:13.326Z,1015.68
2018-12-12T02:07:13.306Z,1015.64
2018-12-12T02:08:13.285Z,1015.65
2018-12-12T02:09:13.261Z,1015.65
2018-12-12T02:10:13.238Z,1015.66
2018-12-12T02:11:13.216Z,1015.67
2018-12-12T02:12:13.191Z,1015.66
2018-12-12T02:13:13.168Z,1015.67
2018-12-12T02:14:13.157Z,1015.73
2018-12-12T02:15:13.125Z,1015.73
2018-12-12T02:16:13.103Z,1015.75
2018-12-12T02:17:13.079Z,1015.77
2018-12-12T02:18:13.060Z,1015.73
2018-12-12T02:19:13.036Z,1015.78
2018-12-12T02:20:13.013Z,1015.75
2018-12-12T02:21:13.005Z,1015.76
2018-12-12T02:22:12.969Z,1015.75
2018-12-12T02:23:12.944Z,1015.72
2018-12-12T02:24:12.922Z,1015.79
2018-12-12T02:25:12.901Z,1015.77
2018-12-12T02:26:12.876Z,1015.85
2018-12-12T02:27:12.856Z,1015.82
2018-12-12T02:28:12.830Z,1015.86
2018-12-12T02:29:12.811Z,1015.86
2018-12-12T02:30:12.792Z,1015.86
2018-12-12T02:31:12.766Z,1015.94
2018-12-12T02:32:12.740Z,1015.92
2018-12-12T02:33:12.721Z,1015.92
2018-12-12T02:34:12.696Z,1015.85
2018-12-12T02:35:12.673Z,1015.91
2018-12-12T02:36:12.656Z,1015.90
2018-12-12T02:37:12.629Z,1015.90
2018-12-12T02:38:12.603Z,1015.90
2018-12-12T02:39:12.586Z,1015.90
2018-12-12T02:40:12.560Z,1015.89
2018-12-12T02:41:12.537Z,1015.86
2018-12-12T02:42:12.514Z,1015.97
2018-12-12T02:43:12.498Z,1015.96
2018-12-12T02:44:12.482Z,1015.95
2018-12-12T02:45:12.454Z,1015.95
2018-12-12T02:46:12.429Z,1016.00
2018-12-12T02:47:12.438Z,1015.99
2018-12-12T02:48:12.378Z,1015.99
2018-12-12T02:49:12.362Z,1016.00
2018-12-12T02:50:12.334Z,1016.01
2018-12-12T02:51:12.314Z,1015.97
2018-12-12T02:52:12.294Z,1015.98
2018-12-12T02:53:12.268Z,1015.99
2018-12-12T02:54:12.243Z,1015.95
2018-12-12T02:55:12.220Z,1015.96
2018-12-12T02:56:12.200Z,1015.99
2018-12-12T02:57:12.181Z,1016.01
2018-12-12T02:58:12.153Z,1016.06
2018-12-12T02:59:12.142Z,1016.03
2018-12-12T03:00:12.108Z,1016.07
2018-12-12T03:01:12.088Z,1016.11
2018-12-12T03:02:12.066Z,1016.08
2018-12-12T03:03:12.045Z,1016.09
2018-12-12T03:04:12.020Z,1016.07
2018-12-12T03:05:11.999Z,1016.09
2018-12-12T03:06:11.975Z,1016.13
2018-12-12T03:07:11.955Z,1016.11
2018-12-12T03:08:11.934Z,1016.12
2018-12-12T03:09:11.908Z,1016.08
2018-12-12T03:10:11.884Z,1016.13
2018-12-12T03:11:11.861Z,1016.11
2018-12-12T03:12:11.839Z,1016.14
2018-12-12T03:13:11.820Z,1016.19
2018-12-12T03:14:11.791Z,1016.14
2018-12-12T03:15:11.775Z,1016.21
2018-12-12T03:16:11.752Z,1016.15
2018-12-12T03:17:11.727Z,1016.19
2018-12-12T03:18:11.709Z,1016.16
2018-12-12T03:19:11.683Z,1016.20
2018-12-12T03:20:11.660Z,1016.19
2018-12-12T03:21:11.727Z,1016.19
2018-12-12T03:22:11.613Z,1016.23
2018-12-12T03:23:11.592Z,1016.23
2018-12-12T03:24:11.572Z,1016.25
2018-12-12T03:25:11.546Z,1016.26
2018-12-12T03:26:11.525Z,1016.26
2018-12-12T03:27:11.503Z,1016.32
2018-12-12T03:28:11.489Z,1016.32
2018-12-12T03:29:11.457Z,1016.30
2018-12-12T03:30:11.439Z,1016.30
2018-12-12T03:31:11.414Z,1016.32
2018-12-12T03:32:11.399Z,1016.34
2018-12-12T03:33:11.373Z,1016.39
2018-12-12T03:34:11.347Z,1016.38
2018-12-12T03:35:11.323Z,1016.43
2018-12-12T03:36:11.300Z,1016.42
2018-12-12T03:37:11.281Z,1016.42
2018-12-12T03:38:11.260Z,1016.40
2018-12-12T03:39:11.233Z,1016.46
2018-12-12T03:40:11.208Z,1016.43
2018-12-12T03:41:11.188Z,1016.44
2018-12-12T03:42:11.166Z,1016.48
2018-12-12T03:43:11.147Z,1016.50
2018-12-12T03:44:11.120Z,1016.47
2018-12-12T03:45:11.101Z,1016.50
2018-12-12T03:46:11.074Z,1016.50
2018-12-12T03:47:11.055Z,1016.55
2018-12-12T03:48:11.032Z,1016.53
2018-12-12T03:49:11.008Z,1016.57
2018-12-12T03:50:10.987Z,1016.59
2018-12-12T03:51:10.968Z,1016.55
2018-12-12T03:52:10.945Z,1016.62
2018-12-12T03:53:10.923Z,1016.61
2018-12-12T03:54:10.895Z,1016.62
2018-12-12T03:55:10.875Z,1016.59
2018-12-12T03:56:10.857Z,1016.62
2018-12-12T03:57:10.829Z,1016.66
2018-12-12T03:58:10.809Z,1016.64
2018-12-12T03:59:10.784Z,1016.63
2018-12-12T04:00:10.834Z,1016.67
2018-12-12T04:01:10.740Z,1016.65
2018-12-12T04:02:10.715Z,1016.67
2018-12-12T04:03:10.694Z,1016.70
2018-12-12T04:04:10.671Z,1016.72
2018-12-12T04:05:10.658Z,1016.75
2018-12-12T04:06:10.629Z,1016.72
2018-12-12T04:07:10.607Z,1016.73
2018-12-12T04:08:10.584Z,1016.76
2018-12-12T04:09:10.562Z,1016.79
2018-12-12T04:10:10.540Z,1016.79
2018-12-12T04:11:10.513Z,1016.82
2018-12-12T04:12:10.495Z,1016.79
2018-12-12T04:13:10.473Z,1016.81
2018-12-12T04:14:10.447Z,1016.84
2018-12-12T04:15:10.425Z,1016.84
2018-12-12T04:16:10.399Z,1016.88
2018-12-12T04:17:12.037Z,1016.88
2018-12-12T04:18:10.361Z,1016.87
2018-12-12T04:19:10.337Z,1016.91
2018-12-12T04:20:10.316Z,1016.95
2018-12-12T04:21:10.298Z,1016.97
2018-12-12T04:22:10.272Z,1016.97
2018-12-12T04:23:10.248Z,1017.02
2018-12-12T04:24:10.225Z,1017.04
2018-12-12T04:25:10.207Z,1017.06
2018-12-12T04:26:10.178Z,1017.04
2018-12-12T04:27:10.159Z,1017.05
2018-12-12T04:28:10.137Z,1017.07
2018-12-12T04:29:10.115Z,1017.10
2018-12-12T04:30:10.142Z,1017.06
2018-12-12T04:31:10.066Z,1017.09
2018-12-12T04:32:10.054Z,1017.10
2018-12-12T04:33:10.020Z,1017.08
2018-12-12T04:34:09.999Z,1017.10
2018-12-12T04:35:09.978Z,1017.08
2018-12-12T04:36:09.961Z,1017.09
2018-12-12T04:37:09.930Z,1017.09
2018-12-12T04:38:09.907Z,1017.03
2018-12-12T04:39:09.890Z,1017.07
2018-12-12T04:40:09.870Z,1017.10
2018-12-12T04:41:09.844Z,1017.09
2018-12-12T04:42:09.820Z,1017.05
2018-12-12T04:43:09.798Z,1017.06
2018-12-12T04:44:09.776Z,1017.08
2018-12-12T04:45:09.804Z,1017.08
2018-12-12T04:46:09.730Z,1017.11
2018-12-12T04:47:09.708Z,1017.11
2018-12-12T04:48:09.686Z,1017.06
2018-12-12T04:49:09.671Z,1017.10
2018-12-12T04:50:09.643Z,1017.08
2018-12-12T04:51:09.625Z,1017.16
2018-12-12T04:52:09.598Z,1017.18
2018-12-12T04:53:09.576Z,1017.15
2018-12-12T04:54:09.564Z,1017.11
2018-12-12T04:55:09.534Z,1017.11
2018-12-12T04:56:09.510Z,1017.12
2018-12-12T04:57:09.482Z,1017.14
2018-12-12T04:58:09.473Z,1017.18
2018-12-12T04:59:09.438Z,1017.16
2018-12-12T05:00:09.419Z,1017.17
2018-12-12T05:01:09.396Z,1017.10
2018-12-12T05:02:09.375Z,1017.21
2018-12-12T05:03:09.355Z,1017.19
2018-12-12T05:04:09.330Z,1017.18
2018-12-12T05:05:09.305Z,1017.14
2018-12-12T05:06:09.279Z,1017.15
2018-12-12T05:07:09.259Z,1017.18
2018-12-12T05:08:09.242Z,1017.18
2018-12-12T05:09:09.220Z,1017.17
2018-12-12T05:10:09.198Z,1017.19
2018-12-12T05:11:09.177Z,1017.21
2018-12-12T05:12:09.147Z,1017.26
2018-12-12T05:13:09.124Z,1017.26
2018-12-12T05:14:09.109Z,1017.26
2018-12-12T05:15:09.083Z,1017.25
2018-12-12T05:16:09.055Z,1017.28
2018-12-12T05:17:09.037Z,1017.29
2018-12-12T05:18:09.019Z,1017.32
2018-12-12T05:19:08.991Z,1017.35
2018-12-12T05:20:08.968Z,1017.30
2018-12-12T05:21:08.947Z,1017.38
2018-12-12T05:22:08.927Z,1017.33
2018-12-12T05:23:08.900Z,1017.39
2018-12-12T05:24:08.878Z,1017.35
2018-12-12T05:25:08.857Z,1017.38
2018-12-12T05:26:08.835Z,1017.38
2018-12-12T05:27:08.809Z,1017.41
2018-12-12T05:28:08.790Z,1017.41
2018-12-12T05:29:08.765Z,1017.42
2018-12-12T05:30:08.741Z,1017.42
2018-12-12T05:31:08.716Z,1017.42
2018-12-12T05:32:08.703Z,1017.45
2018-12-12T05:33:08.677Z,1017.49
2018-12-12T05:34:08.651Z,1017.50
2018-12-12T05:35:08.631Z,1017.50
2018-12-12T05:36:08.610Z,1017.52
2018-12-12T05:37:08.589Z,1017.51
2018-12-12T05:38:08.565Z,1017.55
2018-12-12T05:39:08.542Z,1017.53
2018-12-12T05:40:08.515Z,1017.58
2018-12-12T05:41:08.495Z,1017.54
2018-12-12T05:42:08.479Z,1017.53
2018-12-12T05:43:08.455Z,1017.54
2018-12-12T05:44:08.425Z,1017.54
2018-12-12T05:45:08.407Z,1017.54
2018-12-12T05:46:08.383Z,1017.55
2018-12-12T05:47:08.359Z,1017.59
2018-12-12T05:48:08.331Z,1017.60
2018-12-12T05:49:08.316Z,1017.60
2018-12-12T05:50:08.294Z,1017.65
2018-12-12T05:51:08.265Z,1017.67
2018-12-12T05:52:08.243Z,1017.66
2018-12-12T05:53:08.226Z,1017.63
2018-12-12T05:54:08.204Z,1017.65
2018-12-12T05:55:08.174Z,1017.64
2018-12-12T05:56:13.948Z,1017.62
2018-12-12T05:57:08.133Z,1017.64
2018-12-12T05:58:08.107Z,1017.65
2018-12-12T05:59:08.085Z,1017.68
2018-12-12T06:00:08.061Z,1017.68
2018-12-12T06:01:08.035Z,1017.71
2018-12-12T06:02:08.011Z,1017.67
2018-12-12T06:03:07.996Z,1017.69
2018-12-12T06:04:07.975Z,1017.73
2018-12-12T06:05:07.949Z,1017.70
2018-12-12T06:06:07.921Z,1017.69
2018-12-12T06:07:07.901Z,1017.78
2018-12-12T06:08:07.877Z,1017.72
2018-12-12T06:09:07.855Z,1017.74
2018-12-12T06:10:07.830Z,1017.76
2018-12-12T06:11:07.813Z,1017.75
2018-12-12T06:12:07.786Z,1017.75
2018-12-12T06:13:07.765Z,1017.74
2018-12-12T06:14:07.737Z,1017.74
2018-12-12T06:15:07.716Z,1017.78
2018-12-12T06:16:07.693Z,1017.81
2018-12-12T06:17:07.671Z,1017.83
2018-12-12T06:18:07.651Z,1017.82
2018-12-12T06:19:07.623Z,1017.85
2018-12-12T06:20:07.603Z,1017.86
2018-12-12T06:21:07.583Z,1017.90
2018-12-12T06:22:07.555Z,1017.85
2018-12-12T06:23:07.535Z,1017.89
2018-12-12T06:24:07.507Z,1017.91
2018-12-12T06:25:07.494Z,1017.94
2018-12-12T06:26:07.461Z,1017.95
2018-12-12T06:27:07.623Z,1017.90
2018-12-12T06:28:07.468Z,1017.96
2018-12-12T06:29:07.396Z,1017.93
2018-12-12T06:30:07.369Z,1017.94
2018-12-12T06:31:07.355Z,1017.97
2018-12-12T06:32:07.328Z,1017.99
2018-12-12T06:33:07.311Z,1018.01
2018-12-12T06:34:07.282Z,1018.03
2018-12-12T06:35:07.262Z,1018.01
2018-12-12T06:36:07.237Z,1017.98
2018-12-12T06:37:07.209Z,1018.00
2018-12-12T06:38:07.186Z,1018.03
2018-12-12T06:39:07.167Z,1018.04
2018-12-12T06:40:07.143Z,1018.02
2018-12-12T06:41:07.121Z,1018.06
2018-12-12T06:42:07.101Z,1018.01
2018-12-12T06:43:07.075Z,1018.11
2018-12-12T06:44:07.054Z,1018.10
2018-12-12T06:45:07.038Z,1018.12
2018-12-12T06:46:07.003Z,1018.12
2018-12-12T06:47:06.980Z,1018.16
2018-12-12T06:48:06.956Z,1018.15
2018-12-12T06:49:06.937Z,1018.14
2018-12-12T06:50:06.914Z,1018.12
2018-12-12T06:51:06.891Z,1018.18
2018-12-12T06:52:06.866Z,1018.17
2018-12-12T06:53:06.842Z,1018.22
2018-12-12T06:54:06.825Z,1018.23
2018-12-12T06:55:06.798Z,1018.25
2018-12-12T06:56:06.776Z,1018.28
2018-12-12T06:57:06.754Z,1018.31
2018-12-12T06:58:06.728Z,1018.32
2018-12-12T06:59:06.708Z,1018.30
2018-12-12T07:00:06.683Z,1018.33
2018-12-12T07:01:06.658Z,1018.31
2018-12-12T07:02:06.637Z,1018.37
2018-12-12T07:03:06.622Z,1018.36
2018-12-12T07:04:06.592Z,1018.36
2018-12-12T07:05:06.569Z,1018.35
2018-12-12T07:06:06.541Z,1018.40
2018-12-12T07:07:06.524Z,1018.36
2018-12-12T07:08:06.514Z,1018.39
2018-12-12T07:09:06.476Z,1018.39
2018-12-12T07:10:06.452Z,1018.37
2018-12-12T07:11:06.432Z,1018.43
2018-12-12T07:12:06.410Z,1018.46
2018-12-12T07:13:06.384Z,1018.44
2018-12-12T07:14:06.361Z,1018.45
2018-12-12T07:15:06.338Z,1018.47
2018-12-12T07:16:06.313Z,1018.49
2018-12-12T07:17:06.290Z,1018.49
2018-12-12T07:18:06.270Z,1018.44
2018-12-12T07:19:06.244Z,1018.49
2018-12-12T07:20:06.231Z,1018.47
2018-12-12T07:21:06.204Z,1018.52
2018-12-12T07:22:06.178Z,1018.54
2018-12-12T07:23:06.154Z,1018.58
2018-12-12T07:24:06.130Z,1018.60
2018-12-12T07:25:06.110Z,1018.58
2018-12-12T07:26:06.086Z,1018.52
2018-12-12T07:27:06.062Z,1018.54
2018-12-12T07:28:06.048Z,1018.54
2018-12-12T07:29:06.023Z,1018.61
2018-12-12T07:30:05.994Z,1018.59
2018-12-12T07:31:05.974Z,1018.58
2018-12-12T07:32:05.958Z,1018.60
2018-12-12T07:33:05.926Z,1018.62
2018-12-12T07:34:05.904Z,1018.62
2018-12-12T07:35:05.878Z,1018.65
2018-12-12T07:36:05.862Z,1018.67
2018-12-12T07:37:05.834Z,1018.65
2018-12-12T07:38:05.812Z,1018.69
2018-12-12T07:39:05.790Z,1018.67
2018-12-12T07:40:05.764Z,1018.69
2018-12-12T07:41:05.746Z,1018.72
2018-12-12T07:42:05.723Z,1018.69
2018-12-12T07:43:05.698Z,1018.69
2018-12-12T07:44:05.673Z,1018.69
2018-12-12T07:45:05.660Z,1018.72
2018-12-12T07:46:05.626Z,1018.77
2018-12-12T07:47:05.617Z,1018.72
2018-12-12T07:48:05.582Z,1018.77
2018-12-12T07:49:05.562Z,1018.78
2018-12-12T07:50:05.540Z,1018.79
2018-12-12T07:51:05.517Z,1018.80
2018-12-12T07:52:05.493Z,1018.79
2018-12-12T07:53:05.472Z,1018.78
2018-12-12T07:54:05.443Z,1018.79
2018-12-12T07:55:05.421Z,1018.81
2018-12-12T07:56:05.400Z,1018.83
2018-12-12T07:57:05.377Z,1018.84
2018-12-12T07:58:05.361Z,1018.90
2018-12-12T07:59:05.333Z,1018.92
2018-12-12T08:00:05.314Z,1018.95
2018-12-12T08:01:05.290Z,1018.98
2018-12-12T08:02:05.263Z,1018.93
2018-12-12T08:03:06.561Z,1018.91
2018-12-12T08:04:05.222Z,1018.95
2018-12-12T08:05:05.194Z,1018.96
2018-12-12T08:06:05.169Z,1019.00
2018-12-12T08:07:05.153Z,1019.01
2018-12-12T08:08:05.123Z,1019.04
2018-12-12T08:09:05.104Z,1019.07
2018-12-12T08:10:05.081Z,1019.02
2018-12-12T08:11:05.057Z,1019.02
2018-12-12T08:12:05.040Z,1019.08
2018-12-12T08:13:05.010Z,1019.03
2018-12-12T08:14:04.985Z,1019.13
2018-12-12T08:15:04.969Z,1019.04
2018-12-12T08:16:04.944Z,1019.07
2018-12-12T08:17:04.923Z,1019.00
2018-12-12T08:18:04.896Z,1019.04
2018-12-12T08:19:04.876Z,1019.05
2018-12-12T08:20:04.860Z,1019.05
2018-12-12T08:21:04.831Z,1019.06
2018-12-12T08:22:06.283Z,1019.05
2018-12-12T08:23:04.784Z,1019.11
2018-12-12T08:24:04.768Z,1019.08
2018-12-12T08:25:04.751Z,1019.03
2018-12-12T08:26:04.719Z,1019.04
2018-12-12T08:27:04.695Z,1019.01
2018-12-12T08:28:04.671Z,1019.07
2018-12-12T08:29:04.661Z,1019.04
2018-12-12T08:30:04.625Z,1019.04
2018-12-12T08:31:04.602Z,1019.07
2018-12-12T08:32:04.580Z,1019.08
2018-12-12T08:33:10.951Z,1019.05
2018-12-12T08:34:04.535Z,1019.08
2018-12-12T08:35:04.515Z,1019.09
2018-12-12T08:36:04.490Z,1019.10
2018-12-12T08:37:04.472Z,1019.12
2018-12-12T08:38:04.438Z,1019.10
2018-12-12T08:39:04.419Z,1019.10
2018-12-12T08:40:04.396Z,1019.11
2018-12-12T08:41:04.373Z,1019.14
2018-12-12T08:42:04.368Z,1019.17
2018-12-12T08:43:04.332Z,1019.16
2018-12-12T08:44:04.308Z,1019.16
2018-12-12T08:45:04.288Z,1019.15
2018-12-12T08:46:04.261Z,1019.17
2018-12-12T08:47:04.245Z,1019.20
2018-12-12T08:48:04.215Z,1019.21
2018-12-12T08:49:04.195Z,1019.26
2018-12-12T08:50:04.171Z,1019.22
2018-12-12T08:51:04.155Z,1019.20
2018-12-12T08:52:04.129Z,1019.21
2018-12-12T08:53:04.101Z,1019.21
2018-12-12T08:54:04.081Z,1019.24
2018-12-12T08:55:04.062Z,1019.27
2018-12-12T08:56:04.037Z,1019.28
2018-12-12T08:57:04.023Z,1019.29
2018-12-12T08:58:03.989Z,1019.26
2018-12-12T08:59:03.967Z,1019.28
2018-12-12T09:00:03.976Z,1019.26
2018-12-12T09:01:03.927Z,1019.33
2018-12-12T09:02:03.905Z,1019.33
2018-12-12T09:03:03.880Z,1019.38
2018-12-12T09:04:03.871Z,1019.41
2018-12-12T09:05:03.839Z,1019.39
2018-12-12T09:06:03.817Z,1019.40
2018-12-12T09:07:03.788Z,1019.43
2018-12-12T09:08:03.765Z,1019.45
2018-12-12T09:09:03.741Z,1019.41
2018-12-12T09:10:03.723Z,1019.41
2018-12-12T09:11:03.697Z,1019.42
2018-12-12T09:12:03.678Z,1019.44
2018-12-12T09:13:03.656Z,1019.50
2018-12-12T09:14:03.633Z,1019.54
2018-12-12T09:15:03.612Z,1019.53
2018-12-12T09:16:03.583Z,1019.55
2018-12-12T09:17:09.485Z,1019.57
2018-12-12T09:18:03.543Z,1019.56
2018-12-12T09:19:03.521Z,1019.58
2018-12-12T09:20:03.499Z,1019.59
2018-12-12T09:21:03.479Z,1019.60
2018-12-12T09:22:03.453Z,1019.62
2018-12-12T09:23:03.431Z,1019.61
2018-12-12T09:24:03.408Z,1019.61
2018-12-12T09:25:03.384Z,1019.64
2018-12-12T09:26:03.364Z,1019.68
2018-12-12T09:27:03.341Z,1019.70
2018-12-12T09:28:03.320Z,1019.64
2018-12-12T09:29:03.303Z,1019.66
2018-12-12T09:30:03.279Z,1019.61
2018-12-12T09:31:03.253Z,1019.64
2018-12-12T09:32:03.234Z,1019.60
2018-12-12T09:33:03.211Z,1019.58
2018-12-12T09:34:03.184Z,1019.55
2018-12-12T09:35:03.166Z,1019.57
2018-12-12T09:36:03.150Z,1019.53
2018-12-12T09:37:03.132Z,1019.55
2018-12-12T09:38:03.094Z,1019.56
2018-12-12T09:39:03.076Z,1019.54
2018-12-12T09:40:03.050Z,1019.54
2018-12-12T09:41:03.036Z,1019.52
2018-12-12T09:42:03.014Z,1019.54
2018-12-12T09:43:02.991Z,1019.58
2018-12-12T09:44:02.971Z,1019.60
2018-12-12T09:45:02.942Z,1019.62
2018-12-12T09:46:02.924Z,1019.65
2018-12-12T09:47:02.903Z,1019.60
2018-12-12T09:48:05.532Z,1019.64
2018-12-12T09:49:02.872Z,1019.63
2018-12-12T09:50:02.835Z,1019.69
2018-12-12T09:51:07.151Z,1019.66
2018-12-12T09:52:02.792Z,1019.67
2018-12-12T09:53:02.781Z,1019.66
2018-12-12T09:54:02.743Z,1019.72
2018-12-12T09:55:02.729Z,1019.71
2018-12-12T09:56:02.709Z,1019.70
2018-12-12T09:57:02.692Z,1019.70
2018-12-12T09:58:02.663Z,1019.70
2018-12-12T09:59:02.636Z,1019.73
2018-12-12T10:00:02.618Z,1019.71
2018-12-12T10:01:02.594Z,1019.71
2018-12-12T10:02:02.570Z,1019.71
2018-12-12T10:03:02.557Z,1019.69
2018-12-12T10:04:02.532Z,1019.71
2018-12-12T10:05:02.506Z,1019.68
2018-12-12T10:06:02.493Z,1019.69
2018-12-12T10:07:02.467Z,1019.66
2018-12-12T10:08:02.444Z,1019.64
2018-12-12T10:09:02.419Z,1019.67
2018-12-12T10:10:02.401Z,1019.65
2018-12-12T10:11:02.376Z,1019.65
2018-12-12T10:12:02.360Z,1019.61
2018-12-12T10:13:02.339Z,1019.66
2018-12-12T10:14:02.314Z,1019.66
2018-12-12T10:15:02.293Z,1019.65
2018-12-12T10:16:02.281Z,1019.68
2018-12-12T10:17:02.248Z,1019.68
2018-12-12T10:18:02.231Z,1019.72
2018-12-12T10:19:02.205Z,1019.72
2018-12-12T10:20:02.182Z,1019.66
2018-12-12T10:21:02.163Z,1019.66
2018-12-12T10:22:02.139Z,1019.67
2018-12-12T10:23:02.117Z,1019.63
2018-12-12T10:24:02.102Z,1019.66
2018-12-12T10:25:02.077Z,1019.71
2018-12-12T10:26:02.051Z,1019.70
2018-12-12T10:27:02.031Z,1019.66
2018-12-12T10:28:02.013Z,1019.66
2018-12-12T10:29:01.987Z,1019.66
2018-12-12T10:30:01.971Z,1019.64
2018-12-12T10:31:01.950Z,1019.71
2018-12-12T10:32:01.931Z,1019.67
2018-12-12T10:33:01.909Z,1019.64
2018-12-12T10:34:01.887Z,1019.58
2018-12-12T10:35:01.867Z,1019.62
2018-12-12T10:36:01.841Z,1019.63
2018-12-12T10:37:01.819Z,1019.66
2018-12-12T10:38:01.797Z,1019.63
2018-12-12T10:39:01.778Z,1019.61
2018-12-12T10:40:01.753Z,1019.68
2018-12-12T10:41:01.737Z,1019.68
2018-12-12T10:42:01.714Z,1019.76
2018-12-12T10:43:01.689Z,1019.74
2018-12-12T10:44:01.673Z,1019.73
2018-12-12T10:45:01.650Z,1019.77
2018-12-12T10:46:01.630Z,1019.77
2018-12-12T10:47:01.670Z,1019.78
2018-12-12T10:48:01.585Z,1019.76
2018-12-12T10:49:01.565Z,1019.75
2018-12-12T10:50:01.544Z,1019.76
2018-12-12T10:51:01.521Z,1019.74
2018-12-12T10:52:01.499Z,1019.75
2018-12-12T10:53:01.476Z,1019.80
2018-12-12T10:54:01.458Z,1019.84
2018-12-12T10:55:01.437Z,1019.80
2018-12-12T10:56:01.413Z,1019.78
2018-12-12T10:57:01.393Z,1019.81
2018-12-12T10:58:01.374Z,1019.84
2018-12-12T10:59:01.351Z,1019.83
2018-12-12T11:00:01.335Z,1019.82
2018-12-12T11:01:01.360Z,1019.90
2018-12-12T11:02:01.287Z,1019.91
2018-12-12T11:03:01.266Z,1019.88
2018-12-12T11:04:01.242Z,1019.86
2018-12-12T11:05:01.285Z,1019.84
2018-12-12T11:06:01.212Z,1019.83
2018-12-12T11:07:01.183Z,1019.83
2018-12-12T11:08:01.163Z,1019.82
2018-12-12T11:09:01.137Z,1019.78
2018-12-12T11:10:01.117Z,1019.83
2018-12-12T11:11:01.101Z,1019.83
2018-12-12T11:12:01.076Z,1019.81
2018-12-12T11:13:01.053Z,1019.84
2018-12-12T11:14:01.034Z,1019.85
2018-12-12T11:15:01.015Z,1019.78
2018-12-12T11:16:00.993Z,1019.80
2018-12-12T11:17:00.974Z,1019.84
2018-12-12T11:18:00.955Z,1019.86
2018-12-12T11:19:00.937Z,1019.86
2018-12-12T11:20:00.907Z,1019.86
2018-12-12T11:21:00.891Z,1019.87
2018-12-12T11:22:00.871Z,1019.85
2018-12-12T11:23:00.843Z,1019.89
2018-12-12T11:24:00.828Z,1019.88
2018-12-12T11:25:00.805Z,1019.84
2018-12-12T11:26:00.785Z,1019.76
2018-12-12T11:27:00.760Z,1019.72
2018-12-12T11:28:00.742Z,1019.71
2018-12-12T11:29:00.725Z,1019.75
2018-12-12T11:30:00.697Z,1019.76
2018-12-12T11:31:00.677Z,1019.74
2018-12-12T11:32:00.660Z,1019.71
2018-12-12T11:33:00.649Z,1019.70
2018-12-12T11:34:00.617Z,1019.72
2018-12-12T11:35:00.596Z,1019.76
2018-12-12T11:36:00.575Z,1019.74
2018-12-12T11:37:00.563Z,1019.74
2018-12-12T11:38:00.534Z,1019.77
2018-12-12T11:39:00.512Z,1019.77
2018-12-12T11:40:00.492Z,1019.79
2018-12-12T11:41:00.469Z,1019.74
2018-12-12T11:42:00.453Z,1019.83
2018-12-12T11:43:00.431Z,1019.85
2018-12-12T11:44:00.416Z,1019.82
2018-12-12T11:45:00.388Z,1019.81
2018-12-12T11:46:00.383Z,1019.85
2018-12-12T11:47:00.346Z,1019.88
2018-12-12T11:48:00.326Z,1019.87
2018-12-12T11:49:00.303Z,1019.86
2018-12-12T11:50:00.282Z,1019.94
2018-12-12T11:51:00.262Z,1019.95
2018-12-12T11:52:00.245Z,1019.94
2018-12-12T11:53:00.226Z,1019.93
2018-12-12T11:54:00.202Z,1019.87
2018-12-12T11:55:00.181Z,1019.91
2018-12-12T11:56:00.164Z,1019.92
2018-12-12T11:57:00.146Z,1019.95
2018-12-12T11:58:00.122Z,1019.89
2018-12-12T11:59:00.106Z,1019.86
2018-12-12T12:00:00.085Z,1019.82
2018-12-12T12:01:00.060Z,1019.75
2018-12-12T12:02:00.046Z,1019.71
2018-12-12T12:03:00.023Z,1019.76
2018-12-12T12:04:00.004Z,1019.80
2018-12-12T12:05:00.063Z,1019.79